createdAt,value
2022-10-05T04:46:00.670Z,1003.92
2022-10-05T04:47:01.786Z,1003.92
2022-10-05T04:48:01.646Z,1003.91
2022-10-05T04:49:01.647Z,1003.90
2022-10-05T04:50:01.620Z,1003.91
2022-10-05T04:51:01.628Z,1003.89
2022-10-05T04:52:01.604Z,1003.96
2022-10-05T04:53:01.597Z,1003.99
2022-10-05T04:54:01.601Z,1004.02
2022-10-05T04:55:01.577Z,1004.02
2022-10-05T04:56:01.561Z,1004.02
2022-10-05T04:57:01.564Z,1004.03
2022-10-05T04:58:01.536Z,1004.05
2022-10-05T04:59:01.548Z,1004.09
2022-10-05T05:00:01.515Z,1004.13
2022-10-05T05:01:01.603Z,1004.12
2022-10-05T05:02:01.494Z,1004.11
2022-10-05T05:03:01.484Z,1004.07
2022-10-05T05:04:01.588Z,1004.08
2022-10-05T05:05:01.469Z,1004.09
2022-10-05T05:06:18.026Z,1004.10
2022-10-05T05:07:01.480Z,1004.12
2022-10-05T05:08:01.429Z,1004.14
2022-10-05T05:09:01.440Z,1004.15
2022-10-05T05:10:01.427Z,1004.15
2022-10-05T05:11:01.405Z,1004.16
2022-10-05T05:12:01.387Z,1004.17
2022-10-05T05:13:01.384Z,1004.16
2022-10-05T05:14:01.378Z,1004.17
2022-10-05T05:15:01.362Z,1004.18
2022-10-05T05:16:01.407Z,1004.20
2022-10-05T05:17:01.337Z,1004.20
2022-10-05T05:18:01.331Z,1004.21
2022-10-05T05:19:01.331Z,1004.24
2022-10-05T05:20:01.307Z,1004.24
2022-10-05T05:21:01.294Z,1004.23
2022-10-05T05:22:01.281Z,1004.21
2022-10-05T05:23:01.278Z,1004.19
2022-10-05T05:24:01.271Z,1004.20
2022-10-05T05:25:01.255Z,1004.19
2022-10-05T05:26:01.238Z,1004.21
2022-10-05T05:27:01.240Z,1004.22
2022-10-05T05:28:01.274Z,1004.21
2022-10-05T05:29:01.235Z,1004.21
2022-10-05T05:30:01.195Z,1004.22
2022-10-05T05:31:01.255Z,1004.20
2022-10-05T05:32:01.173Z,1004.21
2022-10-05T05:33:01.188Z,1004.20
2022-10-05T05:34:01.168Z,1004.22
2022-10-05T05:35:01.153Z,1004.21
2022-10-05T05:36:01.136Z,1004.20
2022-10-05T05:37:01.136Z,1004.21
2022-10-05T05:38:01.113Z,1004.22
2022-10-05T05:39:01.134Z,1004.21
2022-10-05T05:40:01.099Z,1004.23
2022-10-05T05:41:01.100Z,1004.25
2022-10-05T05:42:01.073Z,1004.26
2022-10-05T05:43:01.061Z,1004.26
2022-10-05T05:44:01.049Z,1004.27
2022-10-05T05:45:01.055Z,1004.28
2022-10-05T05:46:01.024Z,1004.29
2022-10-05T05:47:05.281Z,1004.29
2022-10-05T05:48:01.009Z,1004.30
2022-10-05T05:49:01.003Z,1004.28
2022-10-05T05:50:06.556Z,1004.27
2022-10-05T05:51:00.988Z,1004.27
2022-10-05T05:52:00.964Z,1004.28
2022-10-05T05:53:00.975Z,1004.26
2022-10-05T05:54:00.947Z,1004.24
2022-10-05T05:55:00.945Z,1004.24
2022-10-05T05:56:00.933Z,1004.23
2022-10-05T05:57:00.917Z,1004.26
2022-10-05T05:58:00.902Z,1004.26
2022-10-05T05:59:00.901Z,1004.24
2022-10-05T06:00:00.901Z,1004.21
2022-10-05T06:01:00.886Z,1004.23
2022-10-05T06:02:01.020Z,1004.23
2022-10-05T06:03:00.983Z,1004.23
2022-10-05T06:04:00.837Z,1004.22
2022-10-05T06:05:00.848Z,1004.20
2022-10-05T06:06:00.814Z,1004.17
2022-10-05T06:07:00.826Z,1004.16
2022-10-05T06:08:00.800Z,1004.15
2022-10-05T06:09:00.796Z,1004.18
2022-10-05T06:10:00.789Z,1004.18
2022-10-05T06:11:00.774Z,1004.21
2022-10-05T06:12:00.760Z,1004.22
2022-10-05T06:13:01.820Z,1004.22
2022-10-05T06:14:00.739Z,1004.24
2022-10-05T06:15:00.743Z,1004.24
2022-10-05T06:16:00.746Z,1004.23
2022-10-05T06:17:00.707Z,1004.25
2022-10-05T06:18:00.693Z,1004.27
2022-10-05T06:19:00.703Z,1004.24
2022-10-05T06:20:04.894Z,1004.27
2022-10-05T06:21:00.660Z,1004.27
2022-10-05T06:22:00.652Z,1004.27
2022-10-05T06:23:00.646Z,1004.27
2022-10-05T06:24:00.628Z,1004.27
2022-10-05T06:25:00.634Z,1004.28
2022-10-05T06:26:00.605Z,1004.29
2022-10-05T06:27:00.600Z,1004.29
2022-10-05T06:28:00.625Z,1004.28
2022-10-05T06:29:00.577Z,1004.31
2022-10-05T06:30:00.586Z,1004.31
2022-10-05T06:31:00.580Z,1004.30
2022-10-05T06:32:00.615Z,1004.33
2022-10-05T06:33:00.538Z,1004.32
2022-10-05T06:34:00.528Z,1004.31
2022-10-05T06:35:00.527Z,1004.33
2022-10-05T06:36:00.514Z,1004.27
2022-10-05T06:37:00.493Z,1004.32
2022-10-05T06:38:00.478Z,1004.31
2022-10-05T06:39:00.484Z,1004.34
2022-10-05T06:40:01.364Z,1004.34
2022-10-05T06:41:00.476Z,1004.35
2022-10-05T06:42:00.454Z,1004.37
2022-10-05T06:43:00.436Z,1004.37
2022-10-05T06:44:00.418Z,1004.38
2022-10-05T06:45:00.419Z,1004.38
2022-10-05T06:46:00.439Z,1004.39
2022-10-05T06:47:00.392Z,1004.37
2022-10-05T06:48:05.022Z,1004.38
2022-10-05T06:49:00.374Z,1004.35
2022-10-05T06:50:00.370Z,1004.36
2022-10-05T06:51:00.364Z,1004.34
2022-10-05T06:52:00.329Z,1004.36
2022-10-05T06:53:00.335Z,1004.36
2022-10-05T06:54:00.333Z,1004.37
2022-10-05T06:55:00.332Z,1004.34
2022-10-05T06:56:00.298Z,1004.36
2022-10-05T06:57:00.289Z,1004.34
2022-10-05T06:58:00.266Z,1004.36
2022-10-05T06:59:00.257Z,1004.35
2022-10-05T07:00:00.279Z,1004.37
2022-10-05T07:01:00.311Z,1004.36
2022-10-05T07:02:00.280Z,1004.36
2022-10-05T07:03:00.213Z,1004.36
2022-10-05T07:04:00.199Z,1004.33
2022-10-05T07:05:00.202Z,1004.34
2022-10-05T07:06:00.190Z,1004.31
2022-10-05T07:07:00.176Z,1004.32
2022-10-05T07:08:00.153Z,1004.33
2022-10-05T07:09:00.148Z,1004.32
2022-10-05T07:10:00.143Z,1004.34
2022-10-05T07:11:00.160Z,1004.31
2022-10-05T07:12:04.848Z,1004.29
2022-10-05T07:13:00.110Z,1004.29
2022-10-05T07:14:00.098Z,1004.29
2022-10-05T07:15:00.093Z,1004.31
2022-10-05T07:16:00.226Z,1004.28
2022-10-05T07:17:00.090Z,1004.28
2022-10-05T07:18:00.055Z,1004.27
2022-10-05T07:19:00.053Z,1004.28
2022-10-05T07:20:00.030Z,1004.26
2022-10-05T07:21:00.021Z,1004.25
2022-10-05T07:22:00.047Z,1004.25
2022-10-05T07:23:00.002Z,1004.25
2022-10-05T07:23:59.983Z,1004.24
2022-10-05T07:24:59.986Z,1004.23
2022-10-05T07:25:59.976Z,1004.28
2022-10-05T07:26:59.965Z,1004.25
2022-10-05T07:27:59.963Z,1004.24
2022-10-05T07:28:59.930Z,1004.29
2022-10-05T07:29:59.913Z,1004.27
2022-10-05T07:31:00.065Z,1004.29
2022-10-05T07:31:59.903Z,1004.27
2022-10-05T07:32:59.884Z,1004.28
2022-10-05T07:33:59.889Z,1004.29
2022-10-05T07:34:59.886Z,1004.28
2022-10-05T07:35:59.846Z,1004.30
2022-10-05T07:36:59.853Z,1004.29
2022-10-05T07:37:59.824Z,1004.30
2022-10-05T07:38:59.816Z,1004.32
2022-10-05T07:40:01.098Z,1004.33
2022-10-05T07:40:59.794Z,1004.31
2022-10-05T07:41:59.790Z,1004.30
2022-10-05T07:42:59.776Z,1004.33
2022-10-05T07:44:03.789Z,1004.28
2022-10-05T07:44:59.766Z,1004.31
2022-10-05T07:45:59.783Z,1004.32
2022-10-05T07:46:59.743Z,1004.32
2022-10-05T07:47:59.718Z,1004.34
2022-10-05T07:48:59.709Z,1004.33
2022-10-05T07:49:59.711Z,1004.34
2022-10-05T07:50:59.705Z,1004.35
2022-10-05T07:51:59.673Z,1004.33
2022-10-05T07:52:59.668Z,1004.35
2022-10-05T07:53:59.653Z,1004.33
2022-10-05T07:54:59.645Z,1004.34
2022-10-05T07:55:59.653Z,1004.39
2022-10-05T07:56:59.627Z,1004.39
2022-10-05T07:57:59.613Z,1004.37
2022-10-05T07:58:59.622Z,1004.38
2022-10-05T07:59:59.607Z,1004.39
2022-10-05T08:00:59.590Z,1004.41
2022-10-05T08:01:59.698Z,1004.39
2022-10-05T08:02:59.608Z,1004.41
2022-10-05T08:03:59.553Z,1004.41
2022-10-05T08:04:59.535Z,1004.41
2022-10-05T08:05:59.554Z,1004.40
2022-10-05T08:06:59.510Z,1004.45
2022-10-05T08:07:59.517Z,1004.42
2022-10-05T08:08:59.498Z,1004.42
2022-10-05T08:09:59.485Z,1004.43
2022-10-05T08:10:59.489Z,1004.47
2022-10-05T08:11:59.456Z,1004.45
2022-10-05T08:12:59.455Z,1004.47
2022-10-05T08:13:59.437Z,1004.45
2022-10-05T08:14:59.421Z,1004.45
2022-10-05T08:15:59.507Z,1004.45
2022-10-05T08:16:59.413Z,1004.43
2022-10-05T08:17:59.393Z,1004.42
2022-10-05T08:18:59.378Z,1004.43
2022-10-05T08:19:59.384Z,1004.47
2022-10-05T08:20:59.384Z,1004.42
2022-10-05T08:21:59.365Z,1004.41
2022-10-05T08:22:59.335Z,1004.43
2022-10-05T08:23:59.328Z,1004.46
2022-10-05T08:24:59.313Z,1004.48
2022-10-05T08:25:59.306Z,1004.50
2022-10-05T08:26:59.314Z,1004.48
2022-10-05T08:27:59.339Z,1004.43
2022-10-05T08:28:59.267Z,1004.48
2022-10-05T08:29:59.262Z,1004.51
2022-10-05T08:30:59.351Z,1004.49
2022-10-05T08:31:59.261Z,1004.47
2022-10-05T08:32:59.227Z,1004.54
2022-10-05T08:33:59.222Z,1004.48
2022-10-05T08:34:59.216Z,1004.53
2022-10-05T08:35:59.210Z,1004.51
2022-10-05T08:36:59.267Z,1004.50
2022-10-05T08:37:59.208Z,1004.51
2022-10-05T08:38:59.204Z,1004.53
2022-10-05T08:39:59.180Z,1004.61
2022-10-05T08:40:59.288Z,1004.53
2022-10-05T08:41:59.163Z,1004.57
2022-10-05T08:42:59.119Z,1004.59
2022-10-05T08:43:59.114Z,1004.61
2022-10-05T08:44:59.102Z,1004.61
2022-10-05T08:45:59.214Z,1004.59
2022-10-05T08:46:59.090Z,1004.60
2022-10-05T08:47:59.066Z,1004.61
2022-10-05T08:48:59.056Z,1004.63
2022-10-05T08:49:59.065Z,1004.64
2022-10-05T08:50:59.032Z,1004.58
2022-10-05T08:51:59.047Z,1004.62
2022-10-05T08:52:59.015Z,1004.59
2022-10-05T08:53:59.012Z,1004.59
2022-10-05T08:54:58.989Z,1004.59
2022-10-05T08:55:58.989Z,1004.62
2022-10-05T08:56:58.988Z,1004.61
2022-10-05T08:57:58.964Z,1004.61
2022-10-05T08:58:58.947Z,1004.60
2022-10-05T08:59:58.968Z,1004.60
2022-10-05T09:00:59.001Z,1004.61
2022-10-05T09:01:59.017Z,1004.63
2022-10-05T09:02:58.998Z,1004.61
2022-10-05T09:03:58.913Z,1004.63
2022-10-05T09:04:58.886Z,1004.63
2022-10-05T09:05:58.877Z,1004.63
2022-10-05T09:06:58.904Z,1004.62
2022-10-05T09:07:58.855Z,1004.63
2022-10-05T09:08:58.854Z,1004.63
2022-10-05T09:10:01.662Z,1004.62
2022-10-05T09:10:58.816Z,1004.60
2022-10-05T09:11:58.827Z,1004.60
2022-10-05T09:12:58.816Z,1004.60
2022-10-05T09:13:58.791Z,1004.57
2022-10-05T09:15:23.840Z,1004.56
2022-10-05T09:15:58.834Z,1004.63
2022-10-05T09:16:58.788Z,1004.57
2022-10-05T09:17:58.746Z,1004.56
2022-10-05T09:18:58.752Z,1004.56
2022-10-05T09:19:58.725Z,1004.56
2022-10-05T09:20:58.714Z,1004.56
2022-10-05T09:21:58.719Z,1004.54
2022-10-05T09:22:58.704Z,1004.54
2022-10-05T09:23:58.699Z,1004.53
2022-10-05T09:24:58.667Z,1004.56
2022-10-05T09:25:58.690Z,1004.50
2022-10-05T09:26:58.673Z,1004.48
2022-10-05T09:27:58.713Z,1004.45
2022-10-05T09:28:58.625Z,1004.44
2022-10-05T09:29:58.624Z,1004.46
2022-10-05T09:30:58.692Z,1004.47
2022-10-05T09:31:58.611Z,1004.49
2022-10-05T09:32:58.583Z,1004.47
2022-10-05T09:33:58.574Z,1004.45
2022-10-05T09:34:58.587Z,1004.46
2022-10-05T09:35:58.551Z,1004.45
2022-10-05T09:36:58.567Z,1004.44
2022-10-05T09:37:58.573Z,1004.41
2022-10-05T09:38:58.541Z,1004.47
2022-10-05T09:40:01.371Z,1004.42
2022-10-05T09:40:58.506Z,1004.41
2022-10-05T09:41:58.508Z,1004.40
2022-10-05T09:42:58.471Z,1004.42
2022-10-05T09:43:58.468Z,1004.44
2022-10-05T09:44:58.454Z,1004.41
2022-10-05T09:45:58.513Z,1004.40
2022-10-05T09:46:58.432Z,1004.39
2022-10-05T09:47:58.437Z,1004.35
2022-10-05T09:48:58.410Z,1004.36
2022-10-05T09:49:58.422Z,1004.34
2022-10-05T09:50:58.391Z,1004.33
2022-10-05T09:51:58.375Z,1004.34
2022-10-05T09:52:58.384Z,1004.28
2022-10-05T09:53:58.369Z,1004.29
2022-10-05T09:54:58.346Z,1004.31
2022-10-05T09:55:58.334Z,1004.30
2022-10-05T09:56:58.377Z,1004.31
2022-10-05T09:57:58.334Z,1004.28
2022-10-05T09:58:58.297Z,1004.26
2022-10-05T09:59:58.311Z,1004.25
2022-10-05T10:01:09.193Z,1004.27
2022-10-05T10:01:58.412Z,1004.23
2022-10-05T10:02:58.375Z,1004.24
2022-10-05T10:03:58.251Z,1004.21
2022-10-05T10:04:58.235Z,1004.25
2022-10-05T10:05:58.228Z,1004.22
2022-10-05T10:06:58.226Z,1004.21
2022-10-05T10:07:58.231Z,1004.17
2022-10-05T10:08:58.192Z,1004.18
2022-10-05T10:09:58.181Z,1004.19
2022-10-05T10:10:58.182Z,1004.19
2022-10-05T10:11:58.181Z,1004.13
2022-10-05T10:12:58.148Z,1004.14
2022-10-05T10:13:58.140Z,1004.13
2022-10-05T10:15:02.514Z,1004.15
2022-10-05T10:15:58.150Z,1004.13
2022-10-05T10:16:58.116Z,1004.07
2022-10-05T10:17:58.096Z,1004.06
2022-10-05T10:18:58.082Z,1004.05
2022-10-05T10:19:58.073Z,1004.05
2022-10-05T10:20:58.060Z,1004.07
2022-10-05T10:21:58.100Z,1004.02
2022-10-05T10:22:58.035Z,1004.06
2022-10-05T10:23:58.030Z,1004.07
2022-10-05T10:24:58.014Z,1004.05
2022-10-05T10:25:58.022Z,1004.03
2022-10-05T10:26:58.016Z,1004.04
2022-10-05T10:27:58.022Z,1004.08
2022-10-05T10:28:57.968Z,1004.02
2022-10-05T10:29:57.966Z,1004.02
2022-10-05T10:30:58.145Z,1004.01
2022-10-05T10:31:57.958Z,1004.00
2022-10-05T10:32:57.925Z,1004.04
2022-10-05T10:33:57.927Z,1004.00
2022-10-05T10:34:57.906Z,1003.98
2022-10-05T10:36:00.459Z,1004.02
2022-10-05T10:36:57.904Z,1004.00
2022-10-05T10:37:57.873Z,1004.00
2022-10-05T10:38:57.869Z,1003.99
2022-10-05T10:39:57.855Z,1003.99
2022-10-05T10:40:57.846Z,1004.00
2022-10-05T10:41:57.856Z,1004.01
2022-10-05T10:42:57.820Z,1004.00
2022-10-05T10:43:57.812Z,1003.99
2022-10-05T10:44:57.798Z,1004.02
2022-10-05T10:45:57.823Z,1004.02
2022-10-05T10:46:57.803Z,1004.01
2022-10-05T10:47:57.818Z,1003.97
2022-10-05T10:48:57.766Z,1004.02
2022-10-05T10:49:57.774Z,1004.02
2022-10-05T10:50:57.741Z,1003.96
2022-10-05T10:51:57.728Z,1003.95
2022-10-05T10:52:57.726Z,1003.98
2022-10-05T10:53:57.710Z,1003.97
2022-10-05T10:54:57.690Z,1004.01
2022-10-05T10:55:57.713Z,1003.92
2022-10-05T10:56:57.680Z,1003.97
2022-10-05T10:57:57.660Z,1003.97
2022-10-05T10:58:57.658Z,1003.84
2022-10-05T10:59:57.636Z,1003.97
2022-10-05T11:00:57.622Z,1003.98
2022-10-05T11:01:57.698Z,1003.97
2022-10-05T11:02:57.697Z,1004.00
2022-10-05T11:03:57.611Z,1003.96
2022-10-05T11:04:57.577Z,1003.92
2022-10-05T11:05:57.589Z,1003.97
2022-10-05T11:06:57.599Z,1003.99
2022-10-05T11:07:57.562Z,1003.97
2022-10-05T11:08:57.537Z,1003.95
2022-10-05T11:09:57.525Z,1003.97
2022-10-05T11:10:57.513Z,1003.92
2022-10-05T11:11:57.512Z,1003.96
2022-10-05T11:12:57.523Z,1003.93
2022-10-05T11:13:57.492Z,1003.86
2022-10-05T11:14:57.479Z,1003.86
2022-10-05T11:15:57.603Z,1003.81
2022-10-05T11:16:57.446Z,1003.86
2022-10-05T11:17:57.453Z,1003.88
2022-10-05T11:18:57.423Z,1003.86
2022-10-05T11:20:06.350Z,1003.78
2022-10-05T11:20:57.414Z,1003.84
2022-10-05T11:21:57.395Z,1003.83
2022-10-05T11:22:57.399Z,1003.75
2022-10-05T11:23:57.375Z,1003.74
2022-10-05T11:24:57.360Z,1003.73
2022-10-05T11:25:57.353Z,1003.72
2022-10-05T11:26:57.337Z,1003.71
2022-10-05T11:27:57.368Z,1003.70
2022-10-05T11:28:57.311Z,1003.73
2022-10-05T11:29:57.310Z,1003.68
2022-10-05T11:30:57.347Z,1003.68
2022-10-05T11:31:57.349Z,1003.66
2022-10-05T11:32:57.286Z,1003.62
2022-10-05T11:33:57.265Z,1003.66
2022-10-05T11:34:57.254Z,1003.67
2022-10-05T11:35:57.243Z,1003.62
2022-10-05T11:36:57.228Z,1003.59
2022-10-05T11:37:57.245Z,1003.58
2022-10-05T11:38:57.216Z,1003.59
2022-10-05T11:39:57.200Z,1003.58
2022-10-05T11:40:57.183Z,1003.55
2022-10-05T11:41:57.186Z,1003.55
2022-10-05T11:42:57.174Z,1003.51
2022-10-05T11:43:57.165Z,1003.51
2022-10-05T11:44:57.144Z,1003.45
2022-10-05T11:45:57.131Z,1003.42
2022-10-05T11:46:57.118Z,1003.36
2022-10-05T11:47:57.126Z,1003.38
2022-10-05T11:48:57.145Z,1003.39
2022-10-05T11:49:57.096Z,1003.34
2022-10-05T11:50:57.088Z,1003.33
2022-10-05T11:51:57.072Z,1003.28
2022-10-05T11:52:57.076Z,1003.31
2022-10-05T11:53:57.049Z,1003.25
2022-10-05T11:55:12.608Z,1003.30
2022-10-05T11:55:57.032Z,1003.21
2022-10-05T11:56:57.306Z,1003.20
2022-10-05T11:57:57.017Z,1003.24
2022-10-05T11:58:57.007Z,1003.24
2022-10-05T11:59:56.984Z,1003.20
2022-10-05T12:00:56.973Z,1003.18
2022-10-05T12:01:56.965Z,1003.16
2022-10-05T12:02:57.063Z,1003.16
2022-10-05T12:03:57.066Z,1003.20
2022-10-05T12:04:56.942Z,1003.09
2022-10-05T12:05:56.927Z,1003.14
2022-10-05T12:06:56.911Z,1003.13
2022-10-05T12:07:56.893Z,1003.13
2022-10-05T12:08:56.909Z,1003.03
2022-10-05T12:09:56.883Z,1002.97
2022-10-05T12:10:56.870Z,1003.05
2022-10-05T12:11:58.014Z,1003.00
2022-10-05T12:12:57.118Z,1002.97
2022-10-05T12:13:56.843Z,1002.92
2022-10-05T12:14:56.837Z,1002.93
2022-10-05T12:15:56.843Z,1002.79
2022-10-05T12:16:56.801Z,1002.80
2022-10-05T12:17:56.790Z,1002.80
2022-10-05T12:18:56.802Z,1002.81
2022-10-05T12:19:56.762Z,1002.74
2022-10-05T12:20:56.760Z,1002.75
2022-10-05T12:21:56.747Z,1002.76
2022-10-05T12:22:57.118Z,1002.78
2022-10-05T12:23:56.737Z,1002.78
2022-10-05T12:24:56.715Z,1002.66
2022-10-05T12:25:56.700Z,1002.67
2022-10-05T12:26:56.710Z,1002.70
2022-10-05T12:27:56.781Z,1002.67
2022-10-05T12:28:56.703Z,1002.69
2022-10-05T12:29:56.670Z,1002.62
2022-10-05T12:30:56.648Z,1002.68
2022-10-05T12:31:56.636Z,1002.60
2022-10-05T12:33:01.710Z,1002.60
2022-10-05T12:33:56.634Z,1002.56
2022-10-05T12:35:01.778Z,1002.54
2022-10-05T12:35:56.593Z,1002.60
2022-10-05T12:37:04.072Z,1002.50
2022-10-05T12:37:56.573Z,1002.48
2022-10-05T12:38:56.576Z,1002.37
2022-10-05T12:39:56.560Z,1002.47
2022-10-05T12:40:56.539Z,1002.46
2022-10-05T12:41:56.550Z,1002.42
2022-10-05T12:42:56.531Z,1002.41
2022-10-05T12:43:56.531Z,1002.39
2022-10-05T12:44:56.516Z,1002.41
2022-10-05T12:45:56.547Z,1002.42
2022-10-05T12:46:56.474Z,1002.37
2022-10-05T12:47:56.489Z,1002.37
2022-10-05T12:48:56.469Z,1002.35
2022-10-05T12:49:56.436Z,1002.35
2022-10-05T12:50:56.435Z,1002.32
2022-10-05T12:51:56.450Z,1002.32
2022-10-05T12:52:56.427Z,1002.32
2022-10-05T12:53:56.405Z,1002.29
2022-10-05T12:54:56.405Z,1002.27
2022-10-05T12:55:56.370Z,1002.20
2022-10-05T12:56:56.368Z,1002.22
2022-10-05T12:57:56.346Z,1002.22
2022-10-05T12:58:56.362Z,1002.22
2022-10-05T12:59:56.360Z,1002.18
2022-10-05T13:00:56.369Z,1002.16
2022-10-05T13:01:56.331Z,1002.19
2022-10-05T13:02:56.295Z,1002.12
2022-10-05T13:03:56.311Z,1002.09
2022-10-05T13:04:56.306Z,1002.09
2022-10-05T13:06:00.313Z,1002.12
2022-10-05T13:06:56.259Z,1002.07
2022-10-05T13:07:56.235Z,1002.03
2022-10-05T13:08:56.248Z,1002.03
2022-10-05T13:09:56.215Z,1002.02
2022-10-05T13:10:59.917Z,1002.00
2022-10-05T13:11:56.204Z,1001.99
2022-10-05T13:12:56.193Z,1001.97
2022-10-05T13:13:56.180Z,1001.95
2022-10-05T13:14:56.173Z,1001.95
2022-10-05T13:15:56.186Z,1001.89
2022-10-05T13:16:56.202Z,1001.93
2022-10-05T13:17:56.143Z,1001.90
2022-10-05T13:18:56.131Z,1001.90
2022-10-05T13:19:56.105Z,1001.89
2022-10-05T13:20:56.104Z,1001.90
2022-10-05T13:21:56.080Z,1001.85
2022-10-05T13:22:56.091Z,1001.86
2022-10-05T13:23:57.553Z,1001.82
2022-10-05T13:24:56.053Z,1001.82
2022-10-05T13:25:56.043Z,1001.78
2022-10-05T13:26:56.029Z,1001.80
2022-10-05T13:27:56.109Z,1001.77
2022-10-05T13:28:56.028Z,1001.76
2022-10-05T13:29:55.996Z,1001.78
2022-10-05T13:30:55.984Z,1001.79
2022-10-05T13:31:55.975Z,1001.79
2022-10-05T13:32:56.009Z,1001.76
2022-10-05T13:33:55.960Z,1001.75
2022-10-05T13:34:55.946Z,1001.72
2022-10-05T13:35:56.054Z,1001.69
2022-10-05T13:36:55.952Z,1001.68
2022-10-05T13:37:55.906Z,1001.74
2022-10-05T13:38:55.910Z,1001.70
2022-10-05T13:39:55.894Z,1001.71
2022-10-05T13:40:55.872Z,1001.69
2022-10-05T13:41:55.861Z,1001.71
2022-10-05T13:42:55.848Z,1001.72
2022-10-05T13:43:55.834Z,1001.72
2022-10-05T13:44:55.852Z,1001.70
2022-10-05T13:45:56.930Z,1001.64
2022-10-05T13:46:55.808Z,1001.66
2022-10-05T13:47:55.793Z,1001.66
2022-10-05T13:48:55.782Z,1001.68
2022-10-05T13:49:55.792Z,1001.66
2022-10-05T13:50:55.764Z,1001.64
2022-10-05T13:51:55.753Z,1001.65
2022-10-05T13:52:55.777Z,1001.63
2022-10-05T13:53:55.724Z,1001.66
2022-10-05T13:54:55.729Z,1001.64
2022-10-05T13:55:55.704Z,1001.68
2022-10-05T13:56:55.700Z,1001.58
2022-10-05T13:57:55.679Z,1001.58
2022-10-05T13:58:55.674Z,1001.56
2022-10-05T13:59:55.670Z,1001.54
2022-10-05T14:00:55.648Z,1001.53
2022-10-05T14:01:55.679Z,1001.47
2022-10-05T14:02:55.729Z,1001.45
2022-10-05T14:03:55.623Z,1001.44
2022-10-05T14:04:55.619Z,1001.43
2022-10-05T14:05:56.014Z,1001.41
2022-10-05T14:06:55.583Z,1001.39
2022-10-05T14:07:55.578Z,1001.32
2022-10-05T14:08:55.558Z,1001.33
2022-10-05T14:09:55.555Z,1001.31
2022-10-05T14:10:55.546Z,1001.28
2022-10-05T14:11:55.521Z,1001.30
2022-10-05T14:12:55.517Z,1001.24
2022-10-05T14:13:55.505Z,1001.27
2022-10-05T14:14:55.513Z,1001.26
2022-10-05T14:15:55.479Z,1001.22
2022-10-05T14:16:55.654Z,1001.19
2022-10-05T14:17:55.456Z,1001.19
2022-10-05T14:18:55.456Z,1001.20
2022-10-05T14:19:55.459Z,1001.19
2022-10-05T14:20:55.427Z,1001.12
2022-10-05T14:21:55.412Z,1001.20
2022-10-05T14:22:55.411Z,1001.15
2022-10-05T14:23:55.389Z,1001.16
2022-10-05T14:24:55.426Z,1001.13
2022-10-05T14:25:55.392Z,1001.11
2022-10-05T14:26:55.372Z,1001.08
2022-10-05T14:27:55.420Z,1001.07
2022-10-05T14:28:55.337Z,1001.09
2022-10-05T14:29:55.346Z,1001.08
2022-10-05T14:30:58.906Z,1001.08
2022-10-05T14:31:55.397Z,1001.08
2022-10-05T14:32:55.292Z,1001.08
2022-10-05T14:33:55.281Z,1001.07
2022-10-05T14:34:55.272Z,1001.01
2022-10-05T14:35:55.270Z,1001.03
2022-10-05T14:36:55.271Z,1001.02
2022-10-05T14:37:55.247Z,1001.02
2022-10-05T14:38:55.230Z,1001.01
2022-10-05T14:39:55.225Z,1000.97
2022-10-05T14:40:55.211Z,1000.97
2022-10-05T14:41:55.196Z,1000.96
2022-10-05T14:42:55.186Z,1000.95
2022-10-05T14:43:55.169Z,1000.95
2022-10-05T14:44:55.183Z,1000.92
2022-10-05T14:45:55.284Z,1000.95
2022-10-05T14:46:55.142Z,1000.93
2022-10-05T14:47:55.163Z,1000.90
2022-10-05T14:48:55.114Z,1000.91
2022-10-05T14:49:55.124Z,1000.88
2022-10-05T14:50:55.109Z,1000.86
2022-10-05T14:51:55.076Z,1000.86
2022-10-05T14:52:55.074Z,1000.90
2022-10-05T14:53:55.103Z,1000.85
2022-10-05T14:54:55.072Z,1000.89
2022-10-05T14:55:55.032Z,1000.85
2022-10-05T14:56:55.030Z,1000.85
2022-10-05T14:57:55.020Z,1000.85
2022-10-05T14:58:55.003Z,1000.84
2022-10-05T14:59:54.993Z,1000.84
2022-10-05T15:00:55.044Z,1000.82
2022-10-05T15:01:55.025Z,1000.82
2022-10-05T15:02:54.969Z,1000.79
2022-10-05T15:03:54.958Z,1000.80
2022-10-05T15:04:54.940Z,1000.79
2022-10-05T15:05:54.934Z,1000.76
2022-10-05T15:06:56.843Z,1000.80
2022-10-05T15:07:54.895Z,1000.81
2022-10-05T15:08:54.890Z,1000.85
2022-10-05T15:09:55.061Z,1000.85
2022-10-05T15:10:54.890Z,1000.88
2022-10-05T15:11:54.863Z,1000.81
2022-10-05T15:12:54.850Z,1000.83
2022-10-05T15:13:54.834Z,1000.84
2022-10-05T15:14:54.840Z,1000.83
2022-10-05T15:15:54.887Z,1000.82
2022-10-05T15:16:54.865Z,1000.86
2022-10-05T15:17:54.788Z,1000.83
2022-10-05T15:18:54.791Z,1000.87
2022-10-05T15:19:54.768Z,1000.84
2022-10-05T15:20:54.768Z,1000.77
2022-10-05T15:21:54.743Z,1000.79
2022-10-05T15:22:54.738Z,1000.80
2022-10-05T15:23:54.723Z,1000.77
2022-10-05T15:24:54.715Z,1000.78
2022-10-05T15:25:54.711Z,1000.77
2022-10-05T15:26:54.700Z,1000.81
2022-10-05T15:27:54.737Z,1000.82
2022-10-05T15:28:54.677Z,1000.80
2022-10-05T15:29:54.663Z,1000.80
2022-10-05T15:30:54.735Z,1000.86
2022-10-05T15:31:54.630Z,1000.84
2022-10-05T15:32:54.680Z,1000.83
2022-10-05T15:33:54.610Z,1000.85
2022-10-05T15:34:54.606Z,1000.87
2022-10-05T15:35:54.629Z,1000.86
2022-10-05T15:36:54.576Z,1000.85
2022-10-05T15:37:54.597Z,1000.88
2022-10-05T15:38:58.140Z,1000.87
2022-10-05T15:39:54.555Z,1000.89
2022-10-05T15:40:54.568Z,1000.91
2022-10-05T15:41:54.536Z,1000.89
2022-10-05T15:42:54.559Z,1000.90
2022-10-05T15:43:54.494Z,1000.90
2022-10-05T15:44:54.493Z,1000.91
2022-10-05T15:45:54.508Z,1000.95
2022-10-05T15:46:54.484Z,1000.98
2022-10-05T15:47:54.450Z,1001.00
2022-10-05T15:48:54.452Z,1000.98
2022-10-05T15:49:54.430Z,1000.99
2022-10-05T15:50:54.423Z,1001.05
2022-10-05T15:51:54.423Z,1001.04
2022-10-05T15:52:54.398Z,1001.06
2022-10-05T15:53:54.382Z,1001.07
2022-10-05T15:54:54.376Z,1001.12
2022-10-05T15:55:54.375Z,1001.11
2022-10-05T15:56:54.353Z,1001.13
2022-10-05T15:57:54.358Z,1001.06
2022-10-05T15:58:54.329Z,1001.15
2022-10-05T15:59:54.318Z,1001.15
2022-10-05T16:00:54.387Z,1001.21
2022-10-05T16:01:54.516Z,1001.22
2022-10-05T16:02:54.410Z,1001.24
2022-10-05T16:03:54.275Z,1001.24
2022-10-05T16:04:54.273Z,1001.27
2022-10-05T16:05:54.252Z,1001.29
2022-10-05T16:06:54.257Z,1001.29
2022-10-05T16:07:54.229Z,1001.35
2022-10-05T16:08:54.391Z,1001.25
2022-10-05T16:09:54.210Z,1001.34
2022-10-05T16:10:54.199Z,1001.36
2022-10-05T16:11:54.201Z,1001.32
2022-10-05T16:12:54.206Z,1001.31
2022-10-05T16:13:54.166Z,1001.39
2022-10-05T16:14:54.169Z,1001.41
2022-10-05T16:15:54.138Z,1001.43
2022-10-05T16:16:54.211Z,1001.43
2022-10-05T16:17:54.117Z,1001.42
2022-10-05T16:18:54.117Z,1001.46
2022-10-05T16:19:54.095Z,1001.49
2022-10-05T16:20:54.105Z,1001.49
2022-10-05T16:21:54.119Z,1001.52
2022-10-05T16:22:54.073Z,1001.54
2022-10-05T16:23:54.058Z,1001.56
2022-10-05T16:24:54.046Z,1001.55
2022-10-05T16:25:54.070Z,1001.60
2022-10-05T16:26:54.036Z,1001.58
2022-10-05T16:27:54.057Z,1001.66
2022-10-05T16:28:54.002Z,1001.63
2022-10-05T16:29:54.003Z,1001.66
2022-10-05T16:30:54.026Z,1001.68
2022-10-05T16:31:53.985Z,1001.66
2022-10-05T16:32:53.962Z,1001.69
2022-10-05T16:33:53.959Z,1001.79
2022-10-05T16:34:53.949Z,1001.76
2022-10-05T16:35:53.936Z,1001.70
2022-10-05T16:36:53.960Z,1001.81
2022-10-05T16:37:53.912Z,1001.84
2022-10-05T16:38:53.922Z,1001.85
2022-10-05T16:39:53.901Z,1001.88
2022-10-05T16:40:57.261Z,1001.88
2022-10-05T16:41:53.895Z,1001.93
2022-10-05T16:42:53.856Z,1001.91
2022-10-05T16:43:53.852Z,1001.94
2022-10-05T16:44:53.833Z,1001.93
2022-10-05T16:45:53.902Z,1001.92
2022-10-05T16:46:53.941Z,1001.95
2022-10-05T16:47:53.829Z,1001.99
2022-10-05T16:48:53.795Z,1002.00
2022-10-05T16:49:53.790Z,1002.01
2022-10-05T16:50:53.771Z,1001.99